createdAt,value
2022-12-20T00:00:14.673Z,4.2
2022-12-20T00:01:24.437Z,3
2022-12-20T00:02:34.136Z,3.5
2022-12-20T00:03:42.754Z,3.5
2022-12-20T00:04:52.419Z,2.8
2022-12-20T00:06:01.076Z,4.1
2022-12-20T00:07:10.744Z,5.2
2022-12-20T00:08:20.402Z,4.9
2022-12-20T00:09:27.067Z,5.2
2022-12-20T00:10:36.740Z,4.4
2022-12-20T00:11:45.415Z,4.1
2022-12-20T00:12:55.061Z,4.6
2022-12-20T00:14:03.750Z,5.4
2022-12-20T00:15:12.470Z,3.7
2022-12-20T00:16:22.151Z,8
2022-12-20T00:17:30.820Z,7.2
2022-12-20T00:18:40.481Z,4.4
2022-12-20T00:19:50.118Z,5.1
2022-12-20T00:20:58.819Z,5.3
2022-12-20T00:22:08.463Z,5.4
2022-12-20T00:23:18.126Z,3.8
2022-12-20T00:24:27.790Z,2.4
2022-12-20T00:25:37.456Z,5.2
2022-12-20T00:26:47.145Z,4
2022-12-20T00:27:54.820Z,5.4
2022-12-20T00:29:04.495Z,3.7
2022-12-20T00:30:14.163Z,2.7
2022-12-20T00:31:22.881Z,4.3
2022-12-20T00:32:32.551Z,2.3
2022-12-20T00:33:41.204Z,4.7
2022-12-20T00:34:50.910Z,3.9
2022-12-20T00:36:00.545Z,4.5
2022-12-20T00:37:09.248Z,1.9
2022-12-20T00:38:18.947Z,2.6
2022-12-20T00:39:28.602Z,3.4
2022-12-20T00:40:37.312Z,1.9
2022-12-20T00:41:46.980Z,4.1
2022-12-20T00:42:54.635Z,3.2
2022-12-20T00:44:04.336Z,4.2
2022-12-20T00:45:12.984Z,2.1
2022-12-20T00:46:22.654Z,3.1
2022-12-20T00:47:32.305Z,2.5
2022-12-20T00:48:39.939Z,3
2022-12-20T00:49:49.616Z,4.5
2022-12-20T00:50:58.303Z,1.3
2022-12-20T00:52:06.948Z,4.6
2022-12-20T00:53:17.852Z,2.9
2022-12-20T00:54:25.251Z,1.9
2022-12-20T00:55:34.949Z,1.6
2022-12-20T00:56:44.633Z,2
2022-12-20T00:57:53.331Z,2.1
2022-12-20T00:59:01.994Z,3.9
2022-12-20T01:00:10.648Z,2.1
2022-12-20T01:01:45.197Z,1.5
2022-12-20T01:02:54.841Z,3.1
2022-12-20T01:04:03.483Z,2.3
2022-12-20T01:05:12.174Z,2.2
2022-12-20T01:06:21.883Z,2
2022-12-20T01:07:30.557Z,4.6
2022-12-20T01:08:40.255Z,2.6
2022-12-20T01:09:48.969Z,1.6
2022-12-20T01:10:57.642Z,3.4
2022-12-20T01:12:07.369Z,2.2
2022-12-20T01:13:16.074Z,1.4
2022-12-20T01:14:25.775Z,1.1
2022-12-20T01:15:34.445Z,3
2022-12-20T01:16:44.248Z,2.5
2022-12-20T01:17:53.816Z,1.7
2022-12-20T01:19:03.589Z,2.6
2022-12-20T01:20:12.263Z,3.5
2022-12-20T01:21:21.980Z,1.1
2022-12-20T01:22:30.731Z,3.7
2022-12-20T01:23:40.403Z,1.6
2022-12-20T01:24:49.108Z,4
2022-12-20T01:25:57.861Z,1.6
2022-12-20T01:27:07.554Z,1.6
2022-12-20T01:28:16.229Z,1.2
2022-12-20T01:29:23.942Z,2
2022-12-20T01:30:33.667Z,1.7
2022-12-20T01:31:42.365Z,1.9
2022-12-20T01:32:51.006Z,2
2022-12-20T01:33:59.727Z,2.4
2022-12-20T01:35:07.370Z,3
2022-12-20T01:36:17.095Z,1.8
2022-12-20T01:37:25.769Z,1.3
2022-12-20T01:38:34.482Z,4.2
2022-12-20T01:39:44.143Z,2.1
2022-12-20T01:40:53.844Z,3.5
2022-12-20T01:42:02.579Z,2.8
2022-12-20T01:43:11.246Z,1.8
2022-12-20T01:44:20.953Z,3.1
2022-12-20T01:45:30.691Z,2
2022-12-20T01:46:39.343Z,2.6
2022-12-20T01:47:47.085Z,2.3
2022-12-20T01:48:56.809Z,2
2022-12-20T01:50:05.485Z,1.8
2022-12-20T01:51:15.189Z,2.4
2022-12-20T01:52:24.859Z,2.1
2022-12-20T01:53:32.553Z,2.1
2022-12-20T01:54:42.271Z,1.8
2022-12-20T01:55:51.928Z,1.5
2022-12-20T01:57:00.606Z,1.4
2022-12-20T01:58:10.273Z,2.2
2022-12-20T01:59:20.103Z,1.4
2022-12-20T02:00:28.958Z,1.5
2022-12-20T02:01:38.017Z,2.1
2022-12-20T02:02:46.692Z,1.3
2022-12-20T02:03:56.961Z,1.7
2022-12-20T02:05:04.787Z,1.5
2022-12-20T02:06:14.585Z,1.6
2022-12-20T02:07:24.424Z,2
2022-12-20T02:08:33.288Z,2.2
2022-12-20T02:09:43.348Z,4.2
2022-12-20T02:10:53.275Z,1.7
2022-12-20T02:12:03.019Z,1.3
2022-12-20T02:13:12.790Z,2.1
2022-12-20T02:14:21.719Z,2.3
2022-12-20T02:15:31.512Z,2.3
2022-12-20T02:16:40.484Z,2.6
2022-12-20T02:17:49.595Z,2.2
2022-12-20T02:18:59.353Z,1.8
2022-12-20T02:20:08.163Z,2.7
2022-12-20T02:21:18.002Z,2.3
2022-12-20T02:22:26.823Z,2.5
2022-12-20T02:23:35.630Z,2.4
2022-12-20T02:24:45.567Z,2.7
2022-12-20T02:25:54.433Z,1.3
2022-12-20T02:27:04.249Z,2.1
2022-12-20T02:28:14.053Z,1.3
2022-12-20T02:29:21.853Z,1.4
2022-12-20T02:30:32.583Z,2
2022-12-20T02:31:41.427Z,1.6
2022-12-20T02:32:51.197Z,2.5
2022-12-20T02:34:01.051Z,2.4
2022-12-20T02:35:10.794Z,1.5
2022-12-20T02:36:20.585Z,2.9
2022-12-20T02:37:29.369Z,2.6
2022-12-20T02:38:38.200Z,1
2022-12-20T02:39:48.065Z,3.7
2022-12-20T02:40:56.946Z,2
2022-12-20T02:42:06.748Z,3.5
2022-12-20T02:43:16.537Z,3.4
2022-12-20T02:44:25.302Z,3.6
2022-12-20T02:45:35.170Z,2.3
2022-12-20T02:46:44.896Z,1.6
2022-12-20T02:47:54.641Z,1.7
2022-12-20T02:49:03.373Z,2.7
2022-12-20T02:50:12.198Z,1.8
2022-12-20T02:51:21.978Z,1.9
2022-12-20T02:52:31.988Z,1.6
2022-12-20T02:53:43.100Z,1.5
2022-12-20T02:54:52.471Z,1.5
2022-12-20T02:56:01.222Z,1.9
2022-12-20T02:57:09.958Z,2.2
2022-12-20T02:58:19.755Z,2.5
2022-12-20T02:59:28.493Z,1.7
2022-12-20T03:00:38.265Z,1.6
2022-12-20T03:01:48.065Z,1.3
2022-12-20T03:02:55.976Z,1.8
2022-12-20T03:04:05.541Z,1.4
2022-12-20T03:05:14.316Z,2.3
2022-12-20T03:06:23.123Z,2.8
2022-12-20T03:07:31.984Z,2.1
2022-12-20T03:08:39.775Z,1.3
2022-12-20T03:09:49.580Z,1.8
2022-12-20T03:10:59.309Z,2.3
2022-12-20T03:12:09.260Z,1.6
2022-12-20T03:13:18.990Z,1.6
2022-12-20T03:14:28.690Z,1.5
2022-12-20T03:15:37.359Z,2.1
2022-12-20T03:16:46.123Z,3
2022-12-20T03:17:55.786Z,1.2
2022-12-20T03:19:05.460Z,1.9
2022-12-20T03:20:15.189Z,1
2022-12-20T03:21:23.840Z,2.2
2022-12-20T03:22:33.571Z,2.2
2022-12-20T03:23:42.279Z,2.6
2022-12-20T03:24:51.217Z,1.2
2022-12-20T03:26:00.957Z,1.8
2022-12-20T03:27:09.641Z,1.3
2022-12-20T03:28:19.534Z,1.3
2022-12-20T03:29:29.303Z,2.4
2022-12-20T03:30:38.114Z,2.3
2022-12-20T03:31:47.857Z,1.4
2022-12-20T03:32:57.622Z,2.3
2022-12-20T03:34:07.455Z,1.6
2022-12-20T03:35:16.258Z,3.9
2022-12-20T03:36:24.958Z,1
2022-12-20T03:37:34.723Z,1.9
2022-12-20T03:38:43.446Z,2.4
2022-12-20T03:39:52.170Z,2.1
2022-12-20T03:41:01.926Z,1
2022-12-20T03:42:10.671Z,1.2
2022-12-20T03:43:20.392Z,1.6
2022-12-20T03:44:30.184Z,2.6
2022-12-20T03:45:36.843Z,1.6
2022-12-20T03:46:46.712Z,1.2
2022-12-20T03:47:56.257Z,1.2
2022-12-20T03:49:06.007Z,2.8
2022-12-20T03:50:15.755Z,1.2
2022-12-20T03:51:24.442Z,1.7
2022-12-20T03:52:33.150Z,1.2
2022-12-20T03:53:41.880Z,1.4
2022-12-20T03:54:49.642Z,1.3
2022-12-20T03:55:59.375Z,1.2
2022-12-20T03:57:08.065Z,1.8
2022-12-20T03:58:16.803Z,1.1
2022-12-20T03:59:26.523Z,1.2
2022-12-20T04:00:35.255Z,1.2
2022-12-20T04:01:44.116Z,1.7
2022-12-20T04:02:53.019Z,1.3
2022-12-20T04:04:01.574Z,1.3
2022-12-20T04:05:10.332Z,1.5
2022-12-20T04:06:19.112Z,1.1
2022-12-20T04:07:28.893Z,1.3
2022-12-20T04:08:38.660Z,1.2
2022-12-20T04:09:47.438Z,1.4
2022-12-20T04:10:56.184Z,0.9
2022-12-20T04:12:04.982Z,1.1
2022-12-20T04:13:12.848Z,1
2022-12-20T04:14:22.649Z,1.2
2022-12-20T04:15:32.479Z,1.8
2022-12-20T04:16:41.385Z,3.1
2022-12-20T04:17:51.033Z,0.7
2022-12-20T04:19:00.880Z,1.5
2022-12-20T04:20:10.669Z,1.2
2022-12-20T04:21:19.409Z,0.8
2022-12-20T04:22:28.157Z,1.1
2022-12-20T04:23:38.016Z,0.9
2022-12-20T04:24:46.776Z,1.2
2022-12-20T04:25:55.548Z,0.9
2022-12-20T04:27:05.422Z,0.8
2022-12-20T04:28:14.173Z,0.7
2022-12-20T04:29:23.030Z,0.8
2022-12-20T04:30:31.959Z,0.7
2022-12-20T04:31:41.740Z,1.4
2022-12-20T04:32:51.466Z,1.3
2022-12-20T04:34:01.244Z,1.1
2022-12-20T04:35:09.047Z,0.9
2022-12-20T04:36:18.820Z,1.7
2022-12-20T04:37:28.600Z,1.2
2022-12-20T04:38:38.333Z,1.1
2022-12-20T04:39:48.124Z,0.8
2022-12-20T04:40:57.044Z,1.6
2022-12-20T04:42:06.812Z,0.7
2022-12-20T04:43:15.540Z,0.7
2022-12-20T04:44:25.318Z,1
2022-12-20T04:45:34.132Z,1.1
2022-12-20T04:46:42.964Z,1.4
2022-12-20T04:47:52.700Z,0.8
2022-12-20T04:49:02.394Z,0.7
2022-12-20T04:50:12.173Z,0.8
2022-12-20T04:51:21.894Z,0.9
2022-12-20T04:52:29.754Z,1.1
2022-12-20T04:53:39.505Z,2.1
2022-12-20T04:54:49.267Z,1
2022-12-20T04:55:59.031Z,0.9
2022-12-20T04:57:08.756Z,0.9
2022-12-20T04:58:17.518Z,1.2
2022-12-20T04:59:26.218Z,1
2022-12-20T05:00:35.031Z,0.8
2022-12-20T05:01:43.835Z,0.8
2022-12-20T05:02:53.669Z,1.9
2022-12-20T05:04:03.298Z,4.4
2022-12-20T05:05:13.024Z,1
2022-12-20T05:06:21.782Z,1.1
2022-12-20T05:07:30.476Z,1.6
2022-12-20T05:08:39.330Z,1.3
2022-12-20T05:09:48.031Z,1.4
2022-12-20T05:10:56.776Z,1.5
2022-12-20T05:12:06.584Z,1.9
2022-12-20T05:13:16.350Z,1.2
2022-12-20T05:14:24.077Z,1.1
2022-12-20T05:15:33.831Z,1.4
2022-12-20T05:16:42.612Z,1.3
2022-12-20T05:17:51.294Z,1.6
2022-12-20T05:19:01.877Z,1.4
2022-12-20T05:20:09.671Z,1.1
2022-12-20T05:21:19.363Z,1.3
2022-12-20T05:22:28.047Z,1.1
2022-12-20T05:23:36.705Z,1.9
2022-12-20T05:24:46.378Z,0.7
2022-12-20T05:25:56.033Z,0.8
2022-12-20T05:27:05.788Z,3.8
2022-12-20T05:28:14.478Z,0.6
2022-12-20T05:29:23.166Z,0.9
2022-12-20T05:30:32.859Z,1.7
2022-12-20T05:31:42.636Z,1.5
2022-12-20T05:32:51.364Z,1
2022-12-20T05:34:01.482Z,0.7
2022-12-20T05:35:10.139Z,0.8
2022-12-20T05:36:18.848Z,1
2022-12-20T05:37:28.547Z,2
2022-12-20T05:38:37.274Z,0.9
2022-12-20T05:39:46.943Z,1.5
2022-12-20T05:40:55.672Z,1.5
2022-12-20T05:42:04.373Z,1.9
2022-12-20T05:43:14.097Z,2
2022-12-20T05:44:23.862Z,1
2022-12-20T05:45:32.550Z,1
2022-12-20T05:46:41.239Z,1.2
2022-12-20T05:47:49.907Z,4
2022-12-20T05:48:59.590Z,0.9
2022-12-20T05:50:11.090Z,1
2022-12-20T05:51:17.021Z,2
2022-12-20T05:52:26.725Z,1.8
2022-12-20T05:53:35.382Z,0.9
2022-12-20T05:54:43.073Z,1.4
2022-12-20T05:55:52.741Z,2.5
2022-12-20T05:57:01.468Z,1.2
2022-12-20T05:58:11.956Z,0.8
2022-12-20T05:59:21.750Z,1.3
2022-12-20T06:00:31.437Z,1.3
2022-12-20T06:01:41.243Z,2.6
2022-12-20T06:02:50.034Z,1.2
2022-12-20T06:03:58.574Z,1.2
2022-12-20T06:05:07.230Z,1
2022-12-20T06:06:16.923Z,1.7
2022-12-20T06:07:26.614Z,2.9
2022-12-20T06:08:35.277Z,1.8
2022-12-20T06:09:44.977Z,1.3
2022-12-20T06:10:54.666Z,1.9
2022-12-20T06:12:04.347Z,1.2
2022-12-20T06:13:14.146Z,1.3
2022-12-20T06:14:23.825Z,0.9
2022-12-20T06:15:32.541Z,1.8
2022-12-20T06:16:42.250Z,2.4
2022-12-20T06:17:50.902Z,1.8
2022-12-20T06:18:58.579Z,3.9
2022-12-20T06:20:08.267Z,5
2022-12-20T06:21:16.969Z,3.3
2022-12-20T06:22:26.667Z,1.4
2022-12-20T06:23:36.393Z,1.4
2022-12-20T06:24:48.414Z,3
2022-12-20T06:25:55.822Z,2
2022-12-20T06:27:05.517Z,1.7
2022-12-20T06:28:13.156Z,0.9
2022-12-20T06:29:22.816Z,2
2022-12-20T06:30:34.154Z,1.3
2022-12-20T06:31:42.255Z,1
2022-12-20T06:32:50.918Z,1.6
2022-12-20T06:33:58.584Z,1.3
2022-12-20T06:35:08.274Z,2.5
2022-12-20T06:36:16.928Z,1.9
2022-12-20T06:37:26.583Z,1.3
2022-12-20T06:38:36.242Z,1.3
2022-12-20T06:39:44.900Z,2.2
2022-12-20T06:40:54.562Z,1.9
2022-12-20T06:42:03.494Z,3.2
2022-12-20T06:43:12.240Z,1.3
2022-12-20T06:44:21.890Z,1.5
2022-12-20T06:45:32.584Z,2.2
2022-12-20T06:46:41.282Z,1.7
2022-12-20T06:47:50.950Z,2.3
2022-12-20T06:48:58.650Z,1.8
2022-12-20T06:50:08.317Z,2
2022-12-20T06:51:16.978Z,1.6
2022-12-20T06:52:26.677Z,2.9
2022-12-20T06:53:36.374Z,1.2
2022-12-20T06:54:45.062Z,2.2
2022-12-20T06:55:54.809Z,2.3
2022-12-20T06:57:03.511Z,1.9
2022-12-20T06:58:13.124Z,1.5
2022-12-20T06:59:22.873Z,1.4
2022-12-20T07:00:32.493Z,1.5
2022-12-20T07:01:42.287Z,1.2
2022-12-20T07:02:50.995Z,1.5
2022-12-20T07:03:59.501Z,3.7
2022-12-20T07:05:09.242Z,2.3
2022-12-20T07:06:17.921Z,1.9
2022-12-20T07:07:25.604Z,2.4
2022-12-20T07:08:35.273Z,1.2
2022-12-20T07:09:44.948Z,2.2
2022-12-20T07:10:53.749Z,1.6
2022-12-20T07:12:02.467Z,1.8
2022-12-20T07:13:11.182Z,1.7
2022-12-20T07:14:20.851Z,3
2022-12-20T07:15:29.554Z,1.7
2022-12-20T07:16:39.215Z,2.6
2022-12-20T07:17:48.889Z,2.2
2022-12-20T07:18:58.572Z,1.8
2022-12-20T07:20:13.161Z,2.4
2022-12-20T07:21:18.908Z,0.9
2022-12-20T07:22:27.591Z,1.2
2022-12-20T07:23:37.318Z,1.5
2022-12-20T07:24:46.985Z,1.6
2022-12-20T07:25:54.644Z,0.9
2022-12-20T07:27:04.309Z,1.1
2022-12-20T07:28:13.102Z,1
2022-12-20T07:29:22.777Z,1
2022-12-20T07:30:33.440Z,2.3
2022-12-20T07:31:42.141Z,1.1
2022-12-20T07:32:51.775Z,2.3
2022-12-20T07:34:01.465Z,2.4
2022-12-20T07:35:09.170Z,1.4
2022-12-20T07:36:18.882Z,2.6
2022-12-20T07:37:27.576Z,1.5
2022-12-20T07:38:37.229Z,1
2022-12-20T07:39:45.973Z,1.1
2022-12-20T07:40:54.622Z,1.7
2022-12-20T07:42:04.380Z,1.1
2022-12-20T07:43:13.003Z,0.8
2022-12-20T07:44:20.639Z,1.1
2022-12-20T07:45:30.420Z,2.7
2022-12-20T07:46:39.117Z,1.4
2022-12-20T07:47:47.687Z,1.7
2022-12-20T07:48:56.354Z,0.7
2022-12-20T07:50:06.040Z,1.6
2022-12-20T07:51:15.784Z,1
2022-12-20T07:52:25.433Z,1.4
2022-12-20T07:53:34.185Z,1.4
2022-12-20T07:54:43.882Z,1.6
2022-12-20T07:55:52.546Z,2.6
2022-12-20T07:57:01.216Z,1.2
2022-12-20T07:58:09.870Z,1.3
2022-12-20T07:59:18.531Z,2.9
2022-12-20T08:00:28.209Z,1.5
2022-12-20T08:01:36.971Z,1
2022-12-20T08:02:45.861Z,3
2022-12-20T08:03:55.427Z,2
2022-12-20T08:05:04.003Z,2.8
2022-12-20T08:06:12.681Z,1.7
2022-12-20T08:07:22.352Z,1.9
2022-12-20T08:08:30.074Z,1.6
2022-12-20T08:09:39.714Z,1.3
2022-12-20T08:10:48.410Z,2.1
2022-12-20T08:11:56.077Z,1.5
2022-12-20T08:13:05.743Z,1.3
2022-12-20T08:14:15.453Z,0.7
2022-12-20T08:15:24.130Z,1.5
2022-12-20T08:16:32.866Z,1.5
2022-12-20T08:17:41.499Z,1
2022-12-20T08:18:51.188Z,0.8
2022-12-20T08:20:00.844Z,1.2
2022-12-20T08:21:09.520Z,1.7
2022-12-20T08:22:19.199Z,1.2
2022-12-20T08:23:28.895Z,1.3
2022-12-20T08:24:38.557Z,1.2
2022-12-20T08:25:47.231Z,1.7
2022-12-20T08:26:55.890Z,1.3
2022-12-20T08:28:05.561Z,3.9
2022-12-20T08:29:15.254Z,2.4
2022-12-20T08:30:23.904Z,2.6
2022-12-20T08:31:33.649Z,1.8
2022-12-20T08:32:43.252Z,2.5
2022-12-20T08:33:51.940Z,0.9
2022-12-20T08:35:01.655Z,1
2022-12-20T08:36:09.212Z,1.4
2022-12-20T08:37:17.880Z,1.5
2022-12-20T08:38:27.552Z,2
2022-12-20T08:39:37.204Z,1.6
2022-12-20T08:40:46.885Z,4
2022-12-20T08:41:54.544Z,1.7
2022-12-20T08:43:09.842Z,2.1
2022-12-20T08:44:13.872Z,1.7
2022-12-20T08:45:22.586Z,1.7
2022-12-20T08:46:32.279Z,3.1
2022-12-20T08:47:39.912Z,7.9
2022-12-20T08:48:50.597Z,2.6
2022-12-20T08:50:00.300Z,2.2
2022-12-20T08:51:08.067Z,4.1
2022-12-20T08:52:17.659Z,3.1
2022-12-20T08:53:27.356Z,5.2
2022-12-20T08:54:36.020Z,2
2022-12-20T08:55:45.704Z,2.1
2022-12-20T08:56:54.365Z,4.7
2022-12-20T08:58:04.051Z,4
2022-12-20T08:59:13.790Z,4.2
2022-12-20T09:00:22.493Z,5.6
2022-12-20T09:01:32.224Z,2.6
2022-12-20T09:02:40.951Z,4.4
2022-12-20T09:03:49.511Z,1.9
2022-12-20T09:04:59.138Z,3.7
2022-12-20T09:06:07.857Z,6
2022-12-20T09:07:17.529Z,4
2022-12-20T09:08:27.187Z,2.5
2022-12-20T09:09:34.845Z,5.2
2022-12-20T09:10:44.515Z,3.5
2022-12-20T09:11:54.206Z,5.2
2022-12-20T09:13:04.914Z,1.6
2022-12-20T09:14:13.579Z,3.6
2022-12-20T09:15:21.242Z,1.8
2022-12-20T09:16:31.055Z,4.3
2022-12-20T09:17:40.647Z,2.6
2022-12-20T09:18:48.312Z,2.6
2022-12-20T09:19:57.981Z,2.9
2022-12-20T09:21:06.648Z,1.6
2022-12-20T09:22:15.307Z,3.6
2022-12-20T09:23:25.010Z,4.3
2022-12-20T09:24:32.706Z,2.6
2022-12-20T09:25:42.345Z,3.8
2022-12-20T09:26:52.984Z,3.3
2022-12-20T09:28:00.647Z,3.4
2022-12-20T09:29:10.380Z,3.9
2022-12-20T09:30:20.020Z,3.9
2022-12-20T09:31:28.785Z,3.8
2022-12-20T09:32:37.397Z,3.9
2022-12-20T09:33:46.111Z,1.5
2022-12-20T09:34:55.815Z,4.1
2022-12-20T09:36:04.488Z,1.9
2022-12-20T09:37:13.173Z,1.5
2022-12-20T09:38:22.889Z,1.9
2022-12-20T09:39:32.580Z,1.7
2022-12-20T09:40:41.240Z,1.1
2022-12-20T09:41:50.939Z,1.5
2022-12-20T09:43:00.608Z,2.9
2022-12-20T09:44:10.311Z,1.1
2022-12-20T09:45:19.058Z,1
2022-12-20T09:46:26.807Z,1.5
2022-12-20T09:47:36.444Z,2
2022-12-20T09:48:46.119Z,1.8
2022-12-20T09:49:54.776Z,1.8
2022-12-20T09:51:03.488Z,2
2022-12-20T09:52:12.179Z,1.6
2022-12-20T09:53:21.851Z,2.1
2022-12-20T09:54:30.495Z,1.9
2022-12-20T09:55:40.241Z,2.1
2022-12-20T09:56:49.885Z,3
2022-12-20T09:57:58.572Z,1.3
2022-12-20T09:59:07.243Z,1.6
2022-12-20T10:00:16.941Z,1.6
2022-12-20T10:01:28.840Z,1.2
2022-12-20T10:03:09.760Z,1.2
2022-12-20T10:03:48.126Z,1.1
2022-12-20T10:04:57.703Z,1
2022-12-20T10:06:07.470Z,2.2
2022-12-20T10:07:15.989Z,1
2022-12-20T10:08:24.647Z,1.2
2022-12-20T10:09:33.347Z,2.4
2022-12-20T10:10:42.030Z,1
2022-12-20T10:11:51.698Z,2.2
2022-12-20T10:13:01.353Z,4.7
2022-12-20T10:14:10.098Z,1.3
2022-12-20T10:15:19.836Z,2.6
2022-12-20T10:16:28.624Z,1.4
2022-12-20T10:17:37.239Z,1.9
2022-12-20T10:18:44.945Z,1.9
2022-12-20T10:19:54.622Z,1.1
2022-12-20T10:21:04.323Z,2.4
2022-12-20T10:22:12.986Z,1.1
2022-12-20T10:23:25.426Z,1.5
2022-12-20T10:24:33.397Z,1
2022-12-20T10:25:42.053Z,8.1
2022-12-20T10:26:50.766Z,1.3
2022-12-20T10:28:00.450Z,2.5
2022-12-20T10:29:09.277Z,0.8
2022-12-20T10:30:18.992Z,1
2022-12-20T10:31:27.723Z,2.3
2022-12-20T10:32:36.356Z,2.1
2022-12-20T10:33:46.064Z,0.9
2022-12-20T10:34:53.718Z,1.4
2022-12-20T10:36:03.382Z,1.6
2022-12-20T10:37:13.276Z,1.9
2022-12-20T10:38:23.284Z,2.2
2022-12-20T10:39:31.949Z,1.6
2022-12-20T10:41:52.333Z,1.4
2022-12-20T10:43:00.988Z,2.7
2022-12-20T10:44:07.729Z,1.5
2022-12-20T10:45:17.380Z,1.3
2022-12-20T10:46:27.080Z,2
2022-12-20T10:47:36.707Z,0.9
2022-12-20T10:48:46.370Z,1.3
2022-12-20T10:49:54.071Z,0.9
2022-12-20T10:51:03.763Z,1.5
2022-12-20T10:52:14.455Z,1.6
2022-12-20T10:53:23.083Z,1
2022-12-20T10:54:32.795Z,1
2022-12-20T10:55:41.485Z,1.1
2022-12-20T10:56:50.188Z,2.7
2022-12-20T10:57:58.861Z,3.3
2022-12-20T10:59:08.611Z,1.1
2022-12-20T11:00:18.477Z,1.4
2022-12-20T11:01:28.269Z,1.7
2022-12-20T11:02:41.119Z,1.6
2022-12-20T11:03:48.737Z,1.9
2022-12-20T11:04:57.308Z,3.6
2022-12-20T11:06:06.011Z,0.9
2022-12-20T11:07:15.723Z,1
2022-12-20T11:08:36.547Z,2.8
2022-12-20T11:09:36.056Z,2.5
2022-12-20T11:10:45.772Z,1.5
2022-12-20T11:11:54.416Z,0.9
2022-12-20T11:13:04.105Z,1.2
2022-12-20T11:14:13.973Z,2.9
2022-12-20T11:15:33.590Z,1.8
2022-12-20T11:16:34.355Z,1.6
2022-12-20T11:17:44.078Z,1
2022-12-20T11:18:53.841Z,2
2022-12-20T11:20:03.522Z,1.4
2022-12-20T11:21:17.116Z,2.3
2022-12-20T11:22:23.971Z,1.6
2022-12-20T11:23:32.642Z,1.5
2022-12-20T11:24:42.364Z,1.6
2022-12-20T11:25:52.049Z,2
2022-12-20T11:27:00.762Z,2.6
2022-12-20T11:28:10.453Z,2.4
2022-12-20T11:29:20.116Z,2.7
2022-12-20T11:30:27.914Z,2.3
2022-12-20T11:31:37.727Z,1.6
2022-12-20T11:32:48.962Z,2.2
2022-12-20T11:33:56.080Z,1.8
2022-12-20T11:35:05.765Z,1.8
2022-12-20T11:36:13.436Z,1.6
2022-12-20T11:37:23.149Z,1.7
2022-12-20T11:38:31.859Z,5.9
2022-12-20T11:39:41.565Z,1.4
2022-12-20T11:40:51.248Z,1.8
2022-12-20T11:41:59.951Z,1.3
2022-12-20T11:43:08.641Z,1.1
2022-12-20T11:44:26.492Z,1.9
2022-12-20T11:45:27.969Z,1.4
2022-12-20T11:46:37.675Z,1.2
2022-12-20T11:47:47.340Z,1.2
2022-12-20T11:48:57.030Z,1.6
2022-12-20T11:50:06.718Z,0.7
2022-12-20T11:51:19.119Z,0.5
2022-12-20T11:52:27.051Z,1.2
2022-12-20T11:53:35.752Z,2
2022-12-20T11:54:44.448Z,2.6
2022-12-20T11:55:54.135Z,1.5
2022-12-20T11:57:03.817Z,2.7
2022-12-20T11:58:21.113Z,4.9
2022-12-20T11:59:24.158Z,2.5
2022-12-20T12:00:32.899Z,3.1
2022-12-20T12:01:42.707Z,2.2
2022-12-20T12:02:58.116Z,3.1
2022-12-20T12:04:03.024Z,2.9
2022-12-20T12:05:12.832Z,1.6
2022-12-20T12:06:21.437Z,1.6
2022-12-20T12:07:32.125Z,4.1
2022-12-20T12:08:41.821Z,2.3
2022-12-20T12:09:51.508Z,0.8
2022-12-20T12:11:00.209Z,1.9
2022-12-20T12:12:10.103Z,1.7
2022-12-20T12:13:18.605Z,2
2022-12-20T12:14:28.304Z,1
2022-12-20T12:15:37.000Z,1.6
2022-12-20T12:16:45.831Z,2
2022-12-20T12:17:55.424Z,3.5
2022-12-20T12:19:05.120Z,1.6
2022-12-20T12:20:14.818Z,1.7
2022-12-20T12:21:23.520Z,1.1
2022-12-20T12:22:32.303Z,1.3
2022-12-20T12:23:42.022Z,1.2
2022-12-20T12:24:51.699Z,2.3
2022-12-20T12:26:00.372Z,1.5
2022-12-20T12:27:15.845Z,1.9
2022-12-20T12:28:18.720Z,1.1
2022-12-20T12:29:27.416Z,1.3
2022-12-20T12:30:37.107Z,2
2022-12-20T12:31:46.882Z,2.3
2022-12-20T12:32:55.526Z,1.9
2022-12-20T12:34:05.181Z,1.7
2022-12-20T12:35:14.852Z,1.3
2022-12-20T12:36:24.526Z,1.7
2022-12-20T12:37:33.242Z,1.4
2022-12-20T12:38:41.033Z,2.9
2022-12-20T12:39:49.754Z,1.6
2022-12-20T12:40:58.440Z,1.5
2022-12-20T12:42:07.120Z,1.4
2022-12-20T12:43:14.868Z,1.4
2022-12-20T12:44:24.534Z,4.4
2022-12-20T12:45:33.263Z,1.5
2022-12-20T12:46:41.969Z,1.2
2022-12-20T12:47:51.594Z,2.9
2022-12-20T12:49:01.301Z,2.2
2022-12-20T12:50:10.961Z,1.3
2022-12-20T12:51:20.723Z,1.2
2022-12-20T12:52:32.287Z,2.4
2022-12-20T12:53:39.100Z,1.3
2022-12-20T12:54:47.753Z,2
2022-12-20T12:56:07.706Z,2
2022-12-20T12:57:08.110Z,3.4
2022-12-20T12:58:16.828Z,3.3
2022-12-20T12:59:25.501Z,4.5
2022-12-20T13:00:35.224Z,1.2
2022-12-20T13:01:52.261Z,2
2022-12-20T13:02:59.731Z,2.5
2022-12-20T13:04:09.384Z,2.6
2022-12-20T13:05:24.048Z,1.7
2022-12-20T13:06:29.705Z,1.8
2022-12-20T13:07:38.383Z,2.8
2022-12-20T13:08:47.194Z,1.3
2022-12-20T13:09:57.100Z,2
2022-12-20T13:11:05.782Z,1.3
2022-12-20T13:12:14.433Z,1.3
2022-12-20T13:13:24.128Z,2.3
2022-12-20T13:14:32.850Z,2
2022-12-20T13:15:42.513Z,1.5
2022-12-20T13:18:00.914Z,1.7
2022-12-20T13:19:10.601Z,0.9
2022-12-20T13:20:19.279Z,1.9
2022-12-20T13:21:27.816Z,1.3
2022-12-20T13:22:37.573Z,1.8
2022-12-20T13:23:47.243Z,1.2
2022-12-20T13:24:55.920Z,3.4
2022-12-20T13:26:05.643Z,2.5
2022-12-20T13:27:13.307Z,1.1
2022-12-20T13:28:22.991Z,0.7
2022-12-20T13:29:32.664Z,1.4
2022-12-20T13:30:42.383Z,1.5
2022-12-20T13:31:54.510Z,2
2022-12-20T13:33:00.658Z,1.2
2022-12-20T13:34:11.339Z,1.6
2022-12-20T13:35:20.077Z,3.6
2022-12-20T13:36:27.768Z,1
2022-12-20T13:37:37.425Z,1.9
2022-12-20T13:38:47.098Z,1.2
2022-12-20T13:39:54.787Z,1.4
2022-12-20T13:41:04.492Z,1.4
2022-12-20T13:42:14.188Z,1.4
2022-12-20T13:43:23.890Z,2.5
2022-12-20T13:44:32.555Z,1.7
2022-12-20T13:45:40.326Z,2.1
2022-12-20T13:46:50.084Z,3.3
2022-12-20T13:47:59.796Z,2.5
2022-12-20T13:49:09.553Z,1
2022-12-20T13:50:19.199Z,0.8
2022-12-20T13:51:28.884Z,1.1
2022-12-20T13:52:37.613Z,0.9
2022-12-20T13:53:46.249Z,1.5
2022-12-20T13:54:55.941Z,1.8
2022-12-20T13:56:05.643Z,1.5
2022-12-20T13:57:15.330Z,2.4
2022-12-20T13:58:23.993Z,1
2022-12-20T13:59:33.689Z,1.5
2022-12-20T14:00:42.369Z,2.2
2022-12-20T14:01:51.120Z,1.4
2022-12-20T14:02:59.776Z,1.7
2022-12-20T14:04:07.579Z,1.7
2022-12-20T14:05:16.079Z,4.2
2022-12-20T14:06:27.011Z,3.2
2022-12-20T14:07:34.418Z,1.7
2022-12-20T14:08:43.125Z,2.7
2022-12-20T14:09:52.746Z,2.2
2022-12-20T14:11:02.416Z,2.4
2022-12-20T14:12:12.121Z,1.2
2022-12-20T14:13:20.779Z,1.4
2022-12-20T14:14:30.451Z,1
2022-12-20T14:15:40.112Z,2.6
2022-12-20T14:16:48.912Z,4.2
2022-12-20T14:17:58.568Z,1.6
2022-12-20T14:19:07.401Z,1.2
2022-12-20T14:20:17.922Z,1.5
2022-12-20T14:21:25.588Z,3.3
2022-12-20T14:22:34.291Z,3.8
2022-12-20T14:23:44.032Z,1.9
2022-12-20T14:24:52.704Z,4.1
2022-12-20T14:26:02.418Z,2.5
2022-12-20T14:27:12.065Z,2.5
2022-12-20T14:28:26.954Z,2.5
2022-12-20T14:29:32.505Z,1.5
2022-12-20T14:30:42.219Z,2
2022-12-20T14:31:50.845Z,1.3
2022-12-20T14:33:00.516Z,2
2022-12-20T14:34:09.210Z,1.6
2022-12-20T14:35:18.923Z,3.8
2022-12-20T14:36:28.644Z,2.5
2022-12-20T14:37:37.301Z,2.4
2022-12-20T14:38:47.063Z,3.4
2022-12-20T14:39:55.836Z,3.8
2022-12-20T14:41:05.487Z,1.9
2022-12-20T14:42:15.185Z,2.6
2022-12-20T14:43:22.884Z,3.1
2022-12-20T14:44:32.557Z,3.5
2022-12-20T14:45:42.229Z,2.4
2022-12-20T14:46:52.008Z,1.4
2022-12-20T14:48:01.661Z,2.1
2022-12-20T14:49:10.401Z,4.1
2022-12-20T14:50:19.088Z,2.7
2022-12-20T14:51:27.747Z,2.7
2022-12-20T14:52:36.447Z,2.5
2022-12-20T14:53:46.104Z,2.6
2022-12-20T14:55:07.529Z,2.8
2022-12-20T14:56:04.445Z,2.2
2022-12-20T14:57:14.080Z,2.8
2022-12-20T14:58:23.804Z,2.7
2022-12-20T14:59:32.452Z,4.3
2022-12-20T15:00:42.174Z,4
2022-12-20T15:01:50.997Z,3
2022-12-20T15:03:01.354Z,2.1
2022-12-20T15:04:10.369Z,2.1
2022-12-20T15:05:20.026Z,2.3
2022-12-20T15:06:29.690Z,4
2022-12-20T15:07:38.369Z,3.9
2022-12-20T15:08:48.102Z,2.6
2022-12-20T15:09:57.846Z,2.9
2022-12-20T15:11:06.545Z,4.4
2022-12-20T15:12:16.229Z,2.5
2022-12-20T15:13:24.932Z,3.3
2022-12-20T15:14:34.605Z,2.3
2022-12-20T15:15:44.357Z,1.6
2022-12-20T15:16:54.000Z,2.9
2022-12-20T15:18:03.696Z,3.1
2022-12-20T15:19:12.351Z,4.2
2022-12-20T15:20:22.013Z,4.7
2022-12-20T15:21:31.749Z,3.2
2022-12-20T15:22:41.422Z,4.5
2022-12-20T15:23:50.169Z,4.5
2022-12-20T15:24:59.931Z,4.3
2022-12-20T15:26:08.692Z,6.2
2022-12-20T15:27:18.440Z,9.3
2022-12-20T15:28:28.197Z,7.4
2022-12-20T15:29:37.915Z,6.2
2022-12-20T15:30:47.766Z,7.2
2022-12-20T15:31:57.475Z,5.8
2022-12-20T15:33:06.271Z,4.5
2022-12-20T15:34:16.022Z,4.6
2022-12-20T15:35:25.829Z,4.4
2022-12-20T15:36:34.486Z,5.1
2022-12-20T15:37:44.197Z,4.7
2022-12-20T15:39:11.730Z,4.5
2022-12-20T15:40:04.607Z,5.6
2022-12-20T15:41:14.371Z,3.9
2022-12-20T15:42:22.103Z,6.2
2022-12-20T15:43:35.532Z,7.6
2022-12-20T15:44:41.640Z,4.4
2022-12-20T15:45:51.410Z,4.9
2022-12-20T15:47:01.184Z,7.3
2022-12-20T15:48:09.876Z,6.9
2022-12-20T15:49:19.623Z,3.3
2022-12-20T15:50:28.367Z,6.3
2022-12-20T15:51:38.115Z,9.9
2022-12-20T15:52:47.817Z,10.1
2022-12-20T15:53:57.530Z,11.1
2022-12-20T15:55:06.217Z,12.3
2022-12-20T15:56:15.951Z,10.2
2022-12-20T15:57:23.662Z,9.6
2022-12-20T15:58:33.328Z,11
2022-12-20T15:59:59.481Z,10.2
2022-12-20T16:00:52.648Z,12.2
2022-12-20T16:02:02.532Z,12.9
2022-12-20T16:03:12.210Z,12.7